Time;durP1;ratioP1;P1;durP2;ratioP2;P2;SDS_P1;SDS_P2;PMS_P1;PMS_P2;Temp;Humidity;BMP_temperature;BMP_pressure;BME280_temperature;BME280_humidity;BME280_pressure;Samples;Min_cycle;Max_cycle;Signal;HPM_P1;HPM_P2
2024/02/22 00:01:45;;;;;;;2.20;1.57;;;8.70;99.90;;;;;;5096400;28;21236;-83
2024/02/22 00:04:13;;;;;;;1.97;1.70;;;8.80;99.90;;;;;;5080071;28;20482;-83
2024/02/22 00:06:40;;;;;;;1.90;1.23;;;8.80;99.90;;;;;;5080174;28;20498;-81
2024/02/22 00:09:07;;;;;;;3.10;1.60;;;8.80;99.90;;;;;;5081652;28;20458;-82
2024/02/22 00:11:34;;;;;;;2.23;1.83;;;8.80;99.90;;;;;;5094876;28;20548;-82
2024/02/22 00:14:01;;;;;;;2.37;1.87;;;8.70;99.90;;;;;;5101378;28;20526;-84
2024/02/22 00:16:28;;;;;;;1.90;1.37;;;8.80;99.90;;;;;;5101546;28;20483;-80
2024/02/22 00:18:55;;;;;;;2.67;1.30;;;8.80;99.90;;;;;;5102274;28;20554;-82
2024/02/22 00:21:23;;;;;;;2.50;1.20;;;8.80;99.90;;;;;;5101665;28;20972;-81
2024/02/22 00:23:50;;;;;;;2.20;1.40;;;8.80;99.90;;;;;;5094397;28;20482;-82
2024/02/22 00:26:17;;;;;;;2.23;1.47;;;8.90;99.90;;;;;;5097775;28;20447;-80
2024/02/22 00:28:43;;;;;;;2.70;1.83;;;8.90;99.90;;;;;;5088275;28;20545;-83
2024/02/22 00:31:10;;;;;;;2.43;1.30;;;8.90;99.90;;;;;;5098892;28;20457;-81
2024/02/22 00:33:37;;;;;;;2.00;1.40;;;8.90;99.90;;;;;;5091263;28;20478;-83
2024/02/22 00:36:05;;;;;;;2.47;1.53;;;8.90;99.90;;;;;;5095859;28;20448;-76
2024/02/22 00:38:33;;;;;;;1.70;1.20;;;8.90;99.90;;;;;;5097567;28;20838;-79
2024/02/22 00:41:00;;;;;;;1.83;1.43;;;8.90;99.90;;;;;;5101558;28;20456;-80
2024/02/22 00:43:27;;;;;;;2.07;1.20;;;8.90;99.90;;;;;;5084276;28;20476;-82
2024/02/22 00:45:54;;;;;;;2.33;1.50;;;8.90;99.90;;;;;;5094969;28;20516;-82
2024/02/22 00:48:21;;;;;;;1.70;1.20;;;8.90;99.90;;;;;;5099728;28;20571;-80
2024/02/22 00:50:48;;;;;;;1.70;1.30;;;9.00;99.90;;;;;;5093634;28;20449;-80
2024/02/22 00:53:15;;;;;;;1.90;1.40;;;9.00;99.90;;;;;;5078050;28;20480;-81
2024/02/22 00:55:43;;;;;;;2.43;1.40;;;8.90;99.90;;;;;;5075990;28;20487;-77
2024/02/22 00:58:10;;;;;;;2.77;1.13;;;9.00;99.90;;;;;;5078980;28;20456;-80
2024/02/22 01:00:37;;;;;;;1.70;1.50;;;9.00;99.90;;;;;;5084474;28;20532;-82
2024/02/22 01:03:06;;;;;;;3.40;1.67;;;9.00;99.90;;;;;;5097941;28;20536;-78
2024/02/22 01:05:33;;;;;;;1.77;1.40;;;9.00;99.90;;;;;;5105684;28;20462;-82
2024/02/22 01:08:00;;;;;;;1.50;1.20;;;9.00;99.90;;;;;;5098791;28;20495;-79
2024/02/22 01:10:27;;;;;;;2.03;1.40;;;9.00;99.90;;;;;;5097423;28;20502;-80
2024/02/22 01:12:55;;;;;;;3.07;1.70;;;9.00;99.90;;;;;;5099567;28;20499;-80
2024/02/22 01:15:22;;;;;;;2.47;1.43;;;9.00;99.90;;;;;;5099554;28;20533;-80
2024/02/22 01:17:48;;;;;;;2.53;1.47;;;9.00;99.90;;;;;;5100337;28;20497;-80
2024/02/22 01:20:16;;;;;;;2.53;1.30;;;9.00;99.90;;;;;;5100177;28;20566;-79
2024/02/22 01:22:42;;;;;;;1.80;1.20;;;9.00;99.90;;;;;;5101172;28;20559;-80
2024/02/22 01:25:10;;;;;;;2.43;1.67;;;9.10;99.90;;;;;;5099752;28;20481;-82
2024/02/22 01:27:37;;;;;;;1.70;1.60;;;9.10;99.90;;;;;;5099626;28;20452;-82
2024/02/22 01:30:07;;;;;;;1.90;1.50;;;9.10;99.90;;;;;;5103864;28;20457;-80
2024/02/22 01:32:33;;;;;;;1.50;1.10;;;9.10;99.90;;;;;;5101172;28;20544;-80
2024/02/22 01:35:00;;;;;;;2.43;1.20;;;9.10;99.90;;;;;;5103623;28;20520;-83
2024/02/22 01:37:27;;;;;;;1.67;1.20;;;9.10;99.90;;;;;;5096057;28;20471;-80
2024/02/22 01:39:54;;;;;;;2.67;1.50;;;9.10;99.90;;;;;;5101996;28;20921;-81
2024/02/22 01:42:22;;;;;;;1.70;1.20;;;9.20;99.90;;;;;;5094671;28;20573;-77
2024/02/22 01:44:48;;;;;;;1.80;1.47;;;9.20;99.90;;;;;;5093767;28;20462;-78
2024/02/22 01:47:17;;;;;;;1.70;1.50;;;9.20;99.90;;;;;;5094341;28;20962;-77
2024/02/22 01:49:44;;;;;;;2.17;1.50;;;9.20;99.90;;;;;;5086654;28;20453;-78
2024/02/22 01:52:12;;;;;;;2.30;1.60;;;9.30;99.90;;;;;;5087500;28;20551;-78
2024/02/22 01:54:39;;;;;;;2.10;1.40;;;9.30;99.90;;;;;;5084582;28;20511;-84
2024/02/22 01:57:06;;;;;;;3.40;1.33;;;9.30;99.90;;;;;;5078257;28;20517;-80
2024/02/22 01:59:34;;;;;;;1.60;1.50;;;9.30;99.90;;;;;;5080967;28;20845;-82
2024/02/22 02:02:01;;;;;;;1.80;1.40;;;9.30;99.90;;;;;;5078758;28;20485;-80
2024/02/22 02:04:29;;;;;;;2.27;1.20;;;9.40;99.90;;;;;;5077215;28;20520;-79
2024/02/22 02:06:56;;;;;;;2.10;1.20;;;9.30;99.90;;;;;;5076753;28;20553;-82
2024/02/22 02:09:23;;;;;;;2.03;1.47;;;9.40;99.90;;;;;;5079710;28;20551;-81
2024/02/22 02:11:50;;;;;;;1.70;1.40;;;9.40;99.90;;;;;;5097640;28;20563;-80
2024/02/22 02:14:17;;;;;;;2.70;1.33;;;9.40;99.90;;;;;;5098098;28;20829;-81
2024/02/22 02:16:43;;;;;;;1.80;1.40;;;9.40;99.90;;;;;;5097081;28;20461;-82
2024/02/22 02:19:16;;;;;;;1.70;1.50;;;9.40;99.90;;;;;;5097719;28;20446;-80
2024/02/22 02:21:57;;;;;;;2.10;1.87;;;9.40;99.90;;;;;;5097982;28;20478;-80
2024/02/22 02:24:33;;;;;;;3.10;1.60;;;9.40;99.90;;;;;;5099345;28;20513;-80
2024/02/22 02:27:01;;;;;;;1.80;1.50;;;9.40;99.90;;;;;;5096588;28;20610;-80
2024/02/22 02:29:28;;;;;;;2.40;1.60;;;9.50;99.90;;;;;;5097350;28;20482;-78
2024/02/22 02:31:55;;;;;;;1.90;1.50;;;9.50;99.90;;;;;;5096298;28;20554;-83
2024/02/22 02:34:22;;;;;;;2.13;1.90;;;9.50;99.90;;;;;;5097894;28;20956;-80
2024/02/22 02:36:49;;;;;;;1.80;1.57;;;9.50;99.90;;;;;;5098788;28;20970;-81
2024/02/22 02:39:15;;;;;;;3.17;1.80;;;9.50;99.90;;;;;;5096405;28;20457;-80
2024/02/22 02:41:42;;;;;;;2.90;1.83;;;9.50;99.90;;;;;;5090838;28;21008;-80
2024/02/22 02:44:10;;;;;;;3.50;1.93;;;9.50;99.90;;;;;;5095968;28;20456;-80
2024/02/22 02:46:38;;;;;;;2.67;2.13;;;9.50;99.90;;;;;;5097215;28;20444;-81
2024/02/22 02:49:03;;;;;;;4.07;2.27;;;9.50;99.90;;;;;;5096257;28;20540;-77
2024/02/22 02:51:31;;;;;;;4.23;2.43;;;9.60;99.90;;;;;;5095267;28;21046;-80
2024/02/22 02:53:57;;;;;;;2.50;2.27;;;9.50;99.90;;;;;;5097772;28;20678;-82
2024/02/22 02:56:24;;;;;;;1.70;1.47;;;9.60;99.90;;;;;;5097340;28;20451;-82
2024/02/22 02:58:51;;;;;;;1.53;1.40;;;9.60;99.90;;;;;;5098722;28;20541;-80
2024/02/22 03:01:19;;;;;;;2.00;1.77;;;9.60;99.90;;;;;;5094881;28;20495;-80
2024/02/22 03:03:46;;;;;;;1.60;1.30;;;9.60;99.90;;;;;;5094012;28;20460;-81
2024/02/22 03:06:13;;;;;;;2.07;1.57;;;9.60;99.90;;;;;;5091808;28;20452;-80
2024/02/22 03:08:40;;;;;;;2.20;1.80;;;9.60;99.90;;;;;;5098116;28;20459;-80
2024/02/22 03:11:07;;;;;;;2.43;1.60;;;9.60;99.90;;;;;;5080661;28;20464;-80
2024/02/22 03:13:35;;;;;;;3.20;1.97;;;9.60;99.90;;;;;;5084406;28;20473;-80
2024/02/22 03:16:04;;;;;;;1.70;1.40;;;9.70;99.90;;;;;;5081085;28;20460;-80
2024/02/22 03:18:33;;;;;;;1.77;1.37;;;9.70;99.90;;;;;;5097984;28;20516;-82
2024/02/22 03:21:00;;;;;;;1.73;1.40;;;9.70;99.90;;;;;;5099900;28;20528;-79
2024/02/22 03:23:27;;;;;;;1.80;1.50;;;9.70;99.90;;;;;;5099218;28;20481;-79
2024/02/22 03:25:54;;;;;;;4.43;1.60;;;9.70;99.90;;;;;;5099134;28;20946;-79
2024/02/22 03:28:21;;;;;;;1.90;1.10;;;9.70;99.90;;;;;;5099082;28;20548;-82
2024/02/22 03:30:48;;;;;;;1.57;1.20;;;9.70;99.90;;;;;;5099691;28;20461;-80
2024/02/22 03:33:15;;;;;;;1.70;1.23;;;9.70;99.90;;;;;;5089613;28;20546;-80
2024/02/22 03:35:43;;;;;;;1.40;1.10;;;9.70;99.90;;;;;;5098164;28;20467;-80
2024/02/22 03:38:10;;;;;;;1.90;1.40;;;9.70;99.90;;;;;;5101197;28;20471;-80
2024/02/22 03:40:37;;;;;;;1.90;1.50;;;9.70;99.90;;;;;;5095670;28;20494;-80
2024/02/22 03:43:04;;;;;;;2.27;1.30;;;9.70;99.90;;;;;;5081619;28;20569;-81
2024/02/22 03:45:31;;;;;;;2.67;1.30;;;9.70;99.90;;;;;;5088710;28;20527;-84
2024/02/22 03:47:58;;;;;;;1.70;1.33;;;9.70;99.90;;;;;;5096806;28;20890;-81
2024/02/22 03:50:24;;;;;;;1.40;1.03;;;9.70;99.90;;;;;;5098586;28;20453;-79
2024/02/22 03:52:54;;;;;;;1.90;1.40;;;9.70;99.90;;;;;;5094165;28;20549;-79
2024/02/22 03:55:21;;;;;;;1.70;1.40;;;9.70;99.90;;;;;;5099292;28;20460;-80
2024/02/22 03:57:47;;;;;;;2.03;1.43;;;9.70;99.90;;;;;;5082071;28;20463;-83
2024/02/22 04:00:15;;;;;;;1.50;1.20;;;9.70;99.90;;;;;;5077329;28;21021;-82
2024/02/22 04:02:46;;;;;;;2.23;1.40;;;9.70;99.90;;;;;;5077974;28;21030;-81
2024/02/22 04:05:14;;;;;;;2.10;1.80;;;9.70;99.90;;;;;;5076042;28;20458;-81
2024/02/22 04:07:42;;;;;;;1.87;1.63;;;9.70;99.90;;;;;;5082968;28;20453;-82
2024/02/22 04:10:10;;;;;;;1.87;1.40;;;9.80;99.90;;;;;;5091935;28;20464;-83
2024/02/22 04:12:36;;;;;;;1.80;1.40;;;9.80;99.90;;;;;;5091405;28;20473;-82
2024/02/22 04:15:04;;;;;;;2.30;1.80;;;9.80;99.90;;;;;;5104933;28;20486;-80
2024/02/22 04:17:30;;;;;;;1.80;1.47;;;9.80;99.90;;;;;;5098311;28;20456;-82
2024/02/22 04:19:57;;;;;;;1.93;1.70;;;9.80;99.90;;;;;;5105971;28;20463;-82
2024/02/22 04:22:25;;;;;;;3.53;2.33;;;9.80;99.90;;;;;;5102033;28;20492;-81
2024/02/22 04:24:52;;;;;;;2.80;2.50;;;9.80;99.90;;;;;;5096878;28;20486;-81
2024/02/22 04:27:20;;;;;;;2.20;2.00;;;9.80;99.90;;;;;;5103346;28;20543;-84
2024/02/22 04:29:47;;;;;;;3.77;2.23;;;9.80;99.90;;;;;;5087499;28;20544;-83
2024/02/22 04:32:14;;;;;;;3.63;2.17;;;9.80;99.90;;;;;;5083151;28;20576;-82
2024/02/22 04:34:41;;;;;;;2.80;2.00;;;9.90;99.90;;;;;;5095302;28;20541;-81
2024/02/22 04:37:08;;;;;;;2.37;2.17;;;9.80;99.90;;;;;;5101976;28;20884;-81
2024/02/22 04:39:35;;;;;;;2.30;2.10;;;9.80;99.90;;;;;;5103863;28;20489;-82
2024/02/22 04:42:02;;;;;;;3.10;2.80;;;9.80;99.90;;;;;;5103508;28;21054;-82
2024/02/22 04:44:30;;;;;;;3.07;2.43;;;9.90;99.90;;;;;;5103827;28;20469;-78
2024/02/22 04:46:57;;;;;;;2.30;2.10;;;9.90;99.90;;;;;;5086866;28;20450;-81
2024/02/22 04:49:24;;;;;;;2.40;2.20;;;9.90;99.90;;;;;;5084626;28;20465;-83
2024/02/22 04:51:51;;;;;;;2.50;2.20;;;9.90;99.90;;;;;;5088798;28;20466;-82
2024/02/22 04:54:18;;;;;;;2.27;1.97;;;9.90;99.90;;;;;;5091929;28;20457;-81
2024/02/22 04:56:45;;;;;;;2.10;1.90;;;9.90;99.90;;;;;;5091975;28;20484;-79
2024/02/22 04:59:12;;;;;;;2.37;2.17;;;9.90;99.90;;;;;;5095802;28;20461;-81
2024/02/22 05:01:40;;;;;;;2.47;2.27;;;10.00;99.90;;;;;;5094203;28;20616;-80
2024/02/22 05:04:07;;;;;;;2.33;2.13;;;10.00;99.90;;;;;;5078893;28;20898;-81
2024/02/22 05:06:35;;;;;;;2.10;1.90;;;10.00;99.90;;;;;;5078461;28;20524;-80
2024/02/22 05:09:02;;;;;;;2.60;2.40;;;9.90;99.90;;;;;;5095401;28;20993;-80
2024/02/22 05:11:29;;;;;;;2.80;2.10;;;9.90;99.90;;;;;;5103233;28;20460;-79
2024/02/22 05:13:57;;;;;;;3.20;2.83;;;9.90;99.90;;;;;;5096758;28;20525;-80
2024/02/22 05:16:24;;;;;;;2.90;2.60;;;9.90;99.90;;;;;;5088495;28;21008;-81
2024/02/22 05:18:52;;;;;;;2.80;2.60;;;9.90;99.90;;;;;;5089241;28;20562;-83
2024/02/22 05:21:19;;;;;;;3.40;2.63;;;10.00;99.90;;;;;;5089068;28;20515;-82
2024/02/22 05:23:46;;;;;;;3.67;2.97;;;9.90;99.90;;;;;;5095418;28;20445;-81
2024/02/22 05:26:13;;;;;;;3.07;2.77;;;9.90;99.90;;;;;;5098382;28;20467;-79
2024/02/22 05:28:40;;;;;;;3.57;3.20;;;9.90;99.90;;;;;;5088453;28;20994;-79
2024/02/22 05:31:21;;;;;;;3.57;2.80;;;9.90;99.90;;;;;;5084580;28;20566;-79
2024/02/22 05:33:48;;;;;;;3.63;2.80;;;9.90;99.90;;;;;;5091513;28;20560;-80
2024/02/22 05:36:16;;;;;;;3.37;3.10;;;9.90;99.90;;;;;;5094710;28;20461;-79
2024/02/22 05:38:43;;;;;;;3.43;3.13;;;9.90;99.90;;;;;;5098080;28;20556;-78
2024/02/22 05:41:10;;;;;;;2.73;2.53;;;9.80;99.90;;;;;;5097791;28;20880;-80
2024/02/22 05:43:37;;;;;;;2.43;2.23;;;9.80;99.90;;;;;;5099476;28;20560;-79
2024/02/22 05:46:04;;;;;;;3.40;3.10;;;9.90;99.90;;;;;;5087594;28;20895;-81
2024/02/22 05:48:31;;;;;;;3.60;3.30;;;9.90;99.90;;;;;;5082013;28;20496;-78
2024/02/22 05:50:57;;;;;;;3.70;3.40;;;9.90;99.90;;;;;;5080989;28;20546;-79
2024/02/22 05:53:26;;;;;;;3.40;3.10;;;9.90;99.90;;;;;;5086034;28;20852;-80
2024/02/22 05:55:52;;;;;;;5.00;4.10;;;9.90;99.90;;;;;;5085378;28;20934;-79
2024/02/22 05:58:19;;;;;;;3.63;3.13;;;9.90;99.90;;;;;;5094296;28;20525;-81
2024/02/22 06:00:46;;;;;;;4.07;3.67;;;10.00;99.90;;;;;;5085724;28;20493;-80
2024/02/22 06:03:13;;;;;;;4.60;4.20;;;9.90;99.90;;;;;;5085200;28;20522;-81
2024/02/22 06:05:42;;;;;;;4.80;4.30;;;9.90;99.90;;;;;;5085874;28;20547;-79
2024/02/22 06:08:09;;;;;;;4.03;3.63;;;10.10;99.90;;;;;;5091591;28;20903;-80
2024/02/22 06:10:37;;;;;;;5.00;4.50;;;9.90;99.90;;;;;;5094326;28;20452;-80
2024/02/22 06:13:04;;;;;;;4.60;3.80;;;10.00;99.90;;;;;;5093346;28;20993;-83
2024/02/22 06:15:31;;;;;;;6.83;5.67;;;9.90;99.90;;;;;;5094278;28;20458;-83
2024/02/22 06:17:58;;;;;;;5.33;4.83;;;10.00;99.90;;;;;;5086357;28;20452;-80
2024/02/22 06:20:25;;;;;;;8.40;4.23;;;10.00;99.90;;;;;;5073997;28;20835;-82
2024/02/22 06:22:52;;;;;;;5.70;4.77;;;10.00;99.90;;;;;;5073692;28;20475;-80
2024/02/22 06:25:19;;;;;;;7.10;5.30;;;10.00;99.90;;;;;;5073545;28;20460;-79
2024/02/22 06:27:47;;;;;;;6.03;5.53;;;10.10;99.90;;;;;;5072918;28;20458;-80
2024/02/22 06:30:15;;;;;;;5.70;5.20;;;10.00;99.90;;;;;;5073330;28;20464;-80
2024/02/22 06:32:42;;;;;;;5.53;5.03;;;10.00;99.90;;;;;;5079268;28;20512;-80
2024/02/22 06:35:09;;;;;;;6.70;6.00;;;10.10;99.90;;;;;;5094130;28;20994;-83
2024/02/22 06:37:36;;;;;;;6.93;6.33;;;10.00;99.90;;;;;;5094006;28;20909;-82
2024/02/22 06:40:05;;;;;;;9.00;6.70;;;10.10;99.90;;;;;;5087469;28;20465;-79
2024/02/22 06:42:31;;;;;;;5.50;5.00;;;10.00;99.90;;;;;;5088736;28;20496;-83
2024/02/22 06:45:00;;;;;;;5.80;5.30;;;10.10;99.90;;;;;;5087423;28;20530;-78
2024/02/22 06:47:27;;;;;;;6.47;5.43;;;10.10;99.90;;;;;;5102767;28;20529;-81
2024/02/22 06:49:54;;;;;;;6.07;5.57;;;10.10;99.90;;;;;;5103758;28;20459;-80
2024/02/22 06:52:22;;;;;;;8.07;5.27;;;10.10;99.90;;;;;;5105963;28;20915;-83
2024/02/22 06:54:50;;;;;;;5.50;5.00;;;10.10;99.90;;;;;;5106247;28;20450;-79
2024/02/22 06:57:16;;;;;;;5.43;4.87;;;10.10;99.90;;;;;;5084979;28;20449;-80
2024/02/22 06:59:43;;;;;;;5.03;4.53;;;10.00;99.90;;;;;;5086052;28;20450;-78
2024/02/22 07:02:12;;;;;;;4.63;3.80;;;10.00;99.90;;;;;;5086793;28;20496;-79
2024/02/22 07:04:38;;;;;;;7.93;4.03;;;10.00;99.90;;;;;;5088649;28;20537;-79
2024/02/22 07:07:05;;;;;;;5.03;4.30;;;10.10;99.90;;;;;;5088200;28;20454;-78
2024/02/22 07:09:32;;;;;;;4.70;4.20;;;10.00;99.90;;;;;;5085905;28;20544;-81
2024/02/22 07:12:00;;;;;;;6.60;3.90;;;10.10;99.90;;;;;;5084605;28;20486;-77
2024/02/22 07:14:28;;;;;;;4.53;4.13;;;10.10;99.90;;;;;;5086231;28;20448;-77
2024/02/22 07:16:54;;;;;;;5.97;4.60;;;10.10;99.90;;;;;;5087146;28;20900;-77
2024/02/22 07:19:23;;;;;;;6.77;4.73;;;10.10;99.90;;;;;;5085576;28;20537;-77
2024/02/22 07:21:49;;;;;;;4.77;4.37;;;10.20;99.90;;;;;;5086021;28;20502;-79
2024/02/22 07:24:17;;;;;;;4.70;4.30;;;10.30;99.90;;;;;;5085284;28;20549;-78
2024/02/22 07:26:46;;;;;;;4.50;4.10;;;10.40;99.90;;;;;;5085360;28;20874;-78
2024/02/22 07:29:12;;;;;;;4.60;4.20;;;10.50;99.90;;;;;;5086355;28;20543;-78
2024/02/22 07:31:39;;;;;;;4.67;4.27;;;10.50;99.90;;;;;;5084075;28;20587;-78
2024/02/22 07:34:08;;;;;;;4.33;3.93;;;10.70;99.90;;;;;;5092055;28;20471;-80
2024/02/22 07:36:37;;;;;;;4.00;3.60;;;10.70;99.90;;;;;;5107625;28;20941;-79
2024/02/22 07:39:04;;;;;;;3.00;2.20;;;10.70;99.90;;;;;;5106522;28;20456;-81
2024/02/22 07:41:31;;;;;;;2.67;2.40;;;10.80;99.90;;;;;;5106600;28;20865;-78
2024/02/22 07:43:58;;;;;;;3.23;2.93;;;10.90;99.90;;;;;;5102476;28;20458;-80
2024/02/22 07:46:24;;;;;;;5.40;3.20;;;11.10;99.90;;;;;;5085154;28;20461;-80
2024/02/22 07:48:51;;;;;;;3.43;3.13;;;11.20;99.90;;;;;;5105109;28;21019;-78
2024/02/22 07:51:18;;;;;;;3.03;2.37;;;11.30;99.90;;;;;;5100199;28;20843;-79
2024/02/22 07:53:46;;;;;;;2.87;2.57;;;11.40;99.90;;;;;;5102814;28;20457;-78
2024/02/22 07:56:13;;;;;;;2.60;2.23;;;11.50;99.90;;;;;;5101370;28;20929;-79
2024/02/22 07:58:47;;;;;;;1.90;1.67;;;11.60;99.90;;;;;;5102029;28;20439;-80
2024/02/22 08:01:15;;;;;;;2.43;2.03;;;11.70;99.90;;;;;;5101558;28;20495;-79
2024/02/22 08:03:43;;;;;;;2.07;1.57;;;11.60;99.90;;;;;;5102768;27;20446;-79
2024/02/22 08:06:10;;;;;;;1.80;1.30;;;11.60;99.90;;;;;;5100675;28;20455;-78
2024/02/22 08:08:38;;;;;;;3.40;1.33;;;11.50;99.90;;;;;;5103796;28;20445;-79
2024/02/22 08:11:07;;;;;;;2.67;1.50;;;11.50;99.90;;;;;;5102560;28;20993;-78
2024/02/22 08:13:34;;;;;;;3.40;1.70;;;11.60;99.90;;;;;;5103245;28;20554;-79
2024/02/22 08:16:06;;;;;;;2.07;1.40;;;11.60;99.90;;;;;;5095209;28;20460;-79
2024/02/22 08:18:33;;;;;;;2.20;1.47;;;11.60;99.90;;;;;;5085319;28;20456;-79
2024/02/22 08:21:00;;;;;;;1.70;1.20;;;11.60;99.90;;;;;;5102833;28;20449;-80
2024/02/22 08:23:27;;;;;;;2.50;1.10;;;11.70;99.90;;;;;;5098047;28;20464;-77
2024/02/22 08:25:54;;;;;;;6.93;1.27;;;11.80;99.90;;;;;;5097013;28;20455;-80
2024/02/22 08:28:24;;;;;;;2.30;1.17;;;11.80;99.90;;;;;;5100769;28;20826;-80
2024/02/22 08:30:51;;;;;;;1.93;1.20;;;11.90;99.90;;;;;;5103249;28;20532;-78
2024/02/22 08:33:18;;;;;;;1.50;1.10;;;11.90;99.90;;;;;;5106498;28;20525;-78
2024/02/22 08:35:44;;;;;;;1.97;0.90;;;11.70;99.90;;;;;;5102364;28;20455;-79
2024/02/22 08:38:12;;;;;;;2.03;0.93;;;11.70;99.90;;;;;;5096514;28;20469;-79
2024/02/22 08:40:40;;;;;;;1.60;0.90;;;11.70;99.90;;;;;;5082858;28;20447;-79
2024/02/22 08:43:08;;;;;;;1.60;1.00;;;11.70;99.90;;;;;;5077640;28;20518;-80
2024/02/22 08:45:36;;;;;;;1.50;1.00;;;11.70;99.90;;;;;;5074639;28;20565;-78
2024/02/22 08:48:03;;;;;;;1.60;1.20;;;11.80;99.90;;;;;;5093738;28;20458;-78
2024/02/22 08:50:30;;;;;;;1.73;1.10;;;11.90;99.90;;;;;;5095296;28;20543;-78
2024/02/22 08:52:57;;;;;;;1.50;0.80;;;12.00;99.90;;;;;;5095111;28;20490;-79
2024/02/22 08:55:25;;;;;;;2.67;1.00;;;12.00;99.90;;;;;;5094824;28;20454;-79
2024/02/22 08:57:52;;;;;;;1.70;1.10;;;12.10;99.90;;;;;;5091896;28;20453;-79
2024/02/22 09:00:20;;;;;;;2.10;1.00;;;12.10;99.90;;;;;;5095629;28;20826;-78
2024/02/22 09:02:48;;;;;;;1.47;0.80;;;12.10;99.90;;;;;;5094921;28;20507;-79
2024/02/22 09:05:15;;;;;;;2.97;1.00;;;12.30;99.90;;;;;;5094947;28;20480;-78
2024/02/22 09:07:42;;;;;;;1.70;1.20;;;12.50;99.90;;;;;;5092469;28;20838;-79
2024/02/22 09:10:10;;;;;;;2.07;0.90;;;12.60;99.90;;;;;;5094705;28;20466;-78
2024/02/22 09:12:40;;;;;;;5.17;0.90;;;12.60;99.90;;;;;;5094000;28;20492;-80
2024/02/22 09:15:08;;;;;;;2.20;0.77;;;12.70;99.90;;;;;;5094657;28;20468;-79
2024/02/22 09:17:35;;;;;;;36.13;17.90;;;12.70;99.90;;;;;;5092148;28;20503;-80
2024/02/22 09:20:05;;;;;;;8.30;5.30;;;12.70;99.90;;;;;;5094723;28;20461;-78
2024/02/22 09:22:32;;;;;;;4.07;1.50;;;12.80;99.90;;;;;;5094859;28;20560;-79
2024/02/22 09:24:59;;;;;;;1.87;1.00;;;12.90;99.90;;;;;;5094841;28;20902;-81
2024/02/22 09:27:26;;;;;;;1.93;0.80;;;12.70;99.90;;;;;;5091761;28;20536;-78
2024/02/22 09:29:53;;;;;;;1.50;0.80;;;12.80;99.90;;;;;;5094478;28;20473;-78
2024/02/22 09:32:20;;;;;;;1.70;0.70;;;12.80;99.90;;;;;;5091862;28;20496;-78
2024/02/22 09:34:48;;;;;;;2.47;0.77;;;12.60;99.90;;;;;;5074405;28;20452;-80
2024/02/22 09:37:16;;;;;;;1.50;0.90;;;12.60;99.90;;;;;;5082857;28;20462;-79
2024/02/22 09:39:43;;;;;;;2.90;0.93;;;12.50;99.90;;;;;;5094771;28;20444;-78
2024/02/22 09:42:11;;;;;;;1.60;0.90;;;12.60;99.90;;;;;;5093082;28;20498;-78
2024/02/22 09:44:38;;;;;;;3.77;0.87;;;12.60;99.90;;;;;;5073980;28;20453;-78
2024/02/22 09:47:08;;;;;;;1.70;0.90;;;12.70;99.90;;;;;;5081915;28;21043;-78
2024/02/22 09:49:35;;;;;;;3.70;1.00;;;12.70;99.90;;;;;;5093961;28;20462;-79
2024/02/22 09:52:03;;;;;;;2.07;0.80;;;12.80;99.90;;;;;;5093610;28;20471;-78
2024/02/22 09:54:31;;;;;;;1.60;0.80;;;12.90;99.90;;;;;;5086227;28;20559;-81
2024/02/22 09:56:57;;;;;;;1.93;0.90;;;12.90;99.90;;;;;;5092264;28;20455;-80
2024/02/22 09:59:24;;;;;;;1.40;0.80;;;12.90;99.90;;;;;;5093234;28;21473;-81
2024/02/22 10:01:51;;;;;;;2.67;0.90;;;12.90;99.90;;;;;;5093739;28;20494;-78
2024/02/22 10:04:21;;;;;;;1.70;1.00;;;12.80;99.90;;;;;;5094094;28;20449;-79
2024/02/22 10:06:49;;;;;;;1.60;0.70;;;12.90;99.90;;;;;;5084478;28;21012;-78
2024/02/22 10:09:16;;;;;;;1.60;0.80;;;12.90;99.90;;;;;;5093502;28;20518;-77
2024/02/22 10:11:46;;;;;;;1.70;0.70;;;13.00;99.90;;;;;;5093641;28;21003;-78
2024/02/22 10:14:14;;;;;;;2.43;0.87;;;13.00;99.90;;;;;;5094001;28;20527;-80
2024/02/22 10:16:41;;;;;;;2.10;0.87;;;13.00;99.90;;;;;;5091957;28;20464;-79
2024/02/22 10:19:12;;;;;;;1.77;0.77;;;12.80;99.90;;;;;;5093913;28;20552;-78
2024/02/22 10:21:39;;;;;;;2.07;0.80;;;12.90;99.90;;;;;;5093386;28;20478;-80
2024/02/22 10:24:08;;;;;;;1.50;0.80;;;13.00;99.90;;;;;;5093363;28;20513;-79
2024/02/22 10:26:35;;;;;;;1.60;0.67;;;13.10;99.90;;;;;;5092422;28;20458;-80
2024/02/22 10:29:07;;;;;;;1.60;0.80;;;13.20;99.90;;;;;;5085559;28;20989;-78
2024/02/22 10:31:34;;;;;;;1.73;0.90;;;13.30;99.90;;;;;;5073325;28;20470;-78
2024/02/22 10:34:03;;;;;;;1.87;0.80;;;13.10;99.90;;;;;;5073370;28;20456;-80
2024/02/22 10:36:30;;;;;;;1.50;0.57;;;13.10;99.90;;;;;;5072746;28;20457;-80
2024/02/22 10:38:59;;;;;;;1.40;0.73;;;13.00;99.90;;;;;;5087802;28;20987;-81
2024/02/22 10:41:26;;;;;;;2.07;0.70;;;13.30;99.90;;;;;;5093511;28;20537;-78
2024/02/22 10:43:57;;;;;;;1.40;0.70;;;13.50;99.90;;;;;;5093401;28;20528;-79
2024/02/22 10:46:27;;;;;;;4.27;0.80;;;13.70;99.90;;;;;;5091941;28;20671;-79
2024/02/22 10:48:54;;;;;;;1.40;0.77;;;14.00;99.90;;;;;;5093826;28;20533;-79
2024/02/22 10:51:23;;;;;;;1.40;0.70;;;14.30;99.90;;;;;;5093402;28;20461;-78
2024/02/22 10:53:54;;;;;;;1.30;0.70;;;14.70;99.90;;;;;;5093530;28;20552;-78
2024/02/22 10:56:23;;;;;;;1.60;0.80;;;14.80;99.90;;;;;;5090311;28;20445;-78
2024/02/22 10:58:53;;;;;;;1.93;0.70;;;14.70;99.90;;;;;;5088137;28;20963;-80
2024/02/22 11:01:21;;;;;;;1.93;0.70;;;14.50;99.90;;;;;;5093249;28;20455;-80
2024/02/22 11:03:49;;;;;;;1.40;0.70;;;14.20;99.90;;;;;;5094027;28;20524;-78
2024/02/22 11:06:19;;;;;;;2.60;0.70;;;14.10;99.90;;;;;;5091006;28;20456;-79
2024/02/22 11:08:49;;;;;;;1.47;0.60;;;14.20;99.90;;;;;;5087714;28;20500;-80
2024/02/22 11:11:26;;;;;;;2.63;0.80;;;14.30;99.90;;;;;;5093625;28;20456;-81
2024/02/22 11:13:57;;;;;;;1.50;0.70;;;14.60;99.90;;;;;;5093592;28;20458;-80
2024/02/22 11:16:33;;;;;;;1.87;0.70;;;15.30;99.90;;;;;;5073544;28;20502;-82
2024/02/22 11:19:06;;;;;;;1.70;0.60;;;16.90;99.90;;;;;;5090628;28;20532;-80
2024/02/22 11:21:33;;;;;;;1.90;0.60;;;17.30;99.90;;;;;;5094138;28;20449;-80
2024/02/22 11:24:07;;;;;;;1.50;0.60;;;17.30;99.90;;;;;;5094076;28;20584;-81
2024/02/22 11:26:34;;;;;;;1.50;0.77;;;16.80;99.90;;;;;;5089169;28;20981;-79
2024/02/22 11:29:01;;;;;;;1.80;0.90;;;16.50;99.90;;;;;;5090535;28;20456;-80
2024/02/22 11:31:28;;;;;;;1.70;0.70;;;16.40;99.90;;;;;;5081846;28;20529;-78
2024/02/22 11:33:56;;;;;;;3.47;2.40;;;15.80;99.90;;;;;;5073854;28;20446;-80
2024/02/22 11:36:25;;;;;;;1.50;0.80;;;15.60;99.90;;;;;;5074241;28;20500;-79
2024/02/22 11:38:59;;;;;;;1.87;0.80;;;15.80;99.90;;;;;;5092347;28;20463;-79
2024/02/22 11:41:27;;;;;;;2.37;0.70;;;15.90;99.90;;;;;;5097309;28;20449;-79
2024/02/22 11:44:03;;;;;;;1.40;0.70;;;15.90;99.90;;;;;;5098056;28;20490;-80
2024/02/22 11:46:34;;;;;;;1.53;0.60;;;15.60;99.90;;;;;;5094640;28;20449;-79
2024/02/22 11:49:02;;;;;;;2.07;0.80;;;15.50;99.90;;;;;;5093448;28;20455;-81
2024/02/22 11:51:30;;;;;;;2.30;0.67;;;15.40;99.90;;;;;;5094134;28;20538;-78
2024/02/22 11:53:57;;;;;;;1.30;0.50;;;15.20;99.90;;;;;;5093152;28;20536;-80
2024/02/22 11:56:24;;;;;;;1.70;0.80;;;15.10;99.90;;;;;;5096182;28;20475;-81
2024/02/22 11:58:51;;;;;;;1.90;0.70;;;15.10;99.90;;;;;;5093755;28;20886;-79
2024/02/22 12:01:20;;;;;;;1.30;0.70;;;14.80;99.90;;;;;;5099210;28;20451;-80
2024/02/22 12:03:48;;;;;;;1.60;0.70;;;15.00;99.90;;;;;;5094625;28;21081;-80
2024/02/22 12:06:15;;;;;;;2.33;0.60;;;15.40;99.90;;;;;;5099670;28;20449;-79
2024/02/22 12:08:44;;;;;;;2.17;0.60;;;16.00;99.90;;;;;;5098328;28;20511;-81
2024/02/22 12:11:13;;;;;;;1.30;0.70;;;17.10;99.90;;;;;;5096974;28;20537;-80
2024/02/22 12:13:40;;;;;;;1.40;0.70;;;18.30;99.90;;;;;;5097304;28;20861;-79
2024/02/22 12:16:07;;;;;;;1.67;0.70;;;18.80;99.90;;;;;;5096706;28;20562;-79
2024/02/22 12:18:35;;;;;;;2.17;0.60;;;19.00;99.90;;;;;;5090712;28;20497;-80
2024/02/22 12:21:02;;;;;;;2.27;0.63;;;19.10;99.90;;;;;;5096988;28;20462;-81
2024/02/22 12:23:29;;;;;;;1.73;0.70;;;20.00;99.90;;;;;;5096465;28;20592;-80
2024/02/22 12:26:06;;;;;;;1.40;0.70;;;21.90;99.90;;;;;;5096751;28;20446;-80
2024/02/22 12:28:33;;;;;;;1.70;0.60;;;23.30;99.90;;;;;;5090052;28;20465;-82
2024/02/22 12:31:00;;;;;;;1.50;0.80;;;24.00;99.90;;;;;;5098012;28;20454;-83
2024/02/22 12:33:27;;;;;;;2.70;0.60;;;23.10;99.90;;;;;;5097511;28;20466;-81
2024/02/22 12:35:54;;;;;;;1.40;0.60;;;20.90;99.90;;;;;;5096245;28;20824;-80
2024/02/22 12:38:20;;;;;;;2.73;0.87;;;20.60;99.90;;;;;;5091182;28;20486;-80
2024/02/22 12:40:47;;;;;;;1.40;0.70;;;20.00;99.90;;;;;;5096427;28;20557;-80
2024/02/22 12:43:16;;;;;;;2.23;0.70;;;19.20;99.90;;;;;;5077799;28;20581;-81
2024/02/22 12:45:43;;;;;;;2.50;0.67;;;18.20;99.90;;;;;;5089566;28;20736;-77
2024/02/22 12:48:10;;;;;;;1.53;0.67;;;17.50;99.90;;;;;;5095446;28;20543;-79
2024/02/22 12:50:38;;;;;;;1.77;0.67;;;16.70;99.90;;;;;;5096187;28;20456;-79
2024/02/22 12:53:08;;;;;;;1.40;0.60;;;16.50;99.90;;;;;;5095111;28;20477;-79